This is the latest recevied weather packets stored in our database for station/object XE2G-31. If no packets are shown the sender has not sent any weather packets the latest 10 day(s).
| Time | Temp. | Humidity | Pressure | Rain* | Wind** | Luminosity | Snow |
|---|---|---|---|---|---|---|---|
| 1778209361 | 22.78° C | 84% | 871 hPa | - | - | - | - |
| 1778208414 | 22.22° C | 84% | 871 hPa | - | - | - | - |
| 1778207468 | 22.78° C | 82% | 871 hPa | - | - | - | - |
| 1778206521 | 22.78° C | 83% | 871 hPa | - | - | - | - |
| 1778205574 | 23.33° C | 82% | 871 hPa | - | - | - | - |
| 1778204627 | 23.33° C | 81% | 871 hPa | - | - | - | - |
| 1778203680 | 23.33° C | 78% | 871 hPa | - | - | - | - |
| 1778202733 | 23.33° C | 78% | 871 hPa | - | - | - | - |
| 1778201787 | 23.33° C | 77% | 870 hPa | - | - | - | - |
| 1778200840 | 23.33° C | 76% | 870 hPa | - | - | - | - |
| 1778199893 | 23.89° C | 72% | 870 hPa | - | - | - | - |
| 1778198946 | 25° C | 69% | 870 hPa | - | - | - | - |
| 1778197999 | 25.56° C | 68% | 870 hPa | - | - | - | - |
| 1778197052 | 25.56° C | 68% | 870 hPa | - | - | - | - |
| 1778196105 | 25° C | 68% | 870 hPa | - | - | - | - |
| 1778195159 | 25° C | 68% | 870 hPa | - | - | - | - |
| 1778194212 | 25° C | 72% | 870 hPa | - | - | - | - |
| 1778193265 | 23.89° C | 73% | 870 hPa | - | - | - | - |
| 1778192318 | 24.44° C | 72% | 870 hPa | - | - | - | - |
| 1778191371 | 25.56° C | 67% | 870 hPa | - | - | - | - |
| 1778190424 | 25° C | 66% | 870 hPa | - | - | - | - |
| 1778189478 | 25.56° C | 66% | 870 hPa | - | - | - | - |
| 1778188531 | 27.22° C | 62% | 870 hPa | - | - | - | - |
| 1778187584 | 26.67° C | 64% | 870 hPa | - | - | - | - |
| 1778186637 | 25.56° C | 71% | 870 hPa | - | - | - | - |
* Rain since midnight (hover to see other rain measurements)
** Current wind speed in m/s (hover to see current wind gust speed)